sensor_id;sensor_type;location;lat;lon;timestamp;P1;durP1;ratioP1;P2;durP2;ratioP2
52734;SDS011;38631;47.572;10.704;2024-01-15T00:01:42;1.42;;;0.50;;
52734;SDS011;38631;47.572;10.704;2024-01-15T00:04:08;0.52;;;0.40;;
52734;SDS011;38631;47.572;10.704;2024-01-15T00:06:34;1.45;;;0.75;;
52734;SDS011;38631;47.572;10.704;2024-01-15T00:08:59;0.93;;;0.63;;
52734;SDS011;38631;47.572;10.704;2024-01-15T00:11:24;2.92;;;1.50;;
52734;SDS011;38631;47.572;10.704;2024-01-15T00:13:50;0.40;;;0.30;;
52734;SDS011;38631;47.572;10.704;2024-01-15T00:16:15;0.50;;;0.30;;
52734;SDS011;38631;47.572;10.704;2024-01-15T00:18:40;1.52;;;0.57;;
52734;SDS011;38631;47.572;10.704;2024-01-15T00:21:06;0.70;;;0.50;;
52734;SDS011;38631;47.572;10.704;2024-01-15T00:23:31;1.08;;;0.35;;
52734;SDS011;38631;47.572;10.704;2024-01-15T00:25:56;1.85;;;0.40;;
52734;SDS011;38631;47.572;10.704;2024-01-15T00:28:22;1.27;;;0.60;;
52734;SDS011;38631;47.572;10.704;2024-01-15T00:30:47;0.80;;;0.30;;
52734;SDS011;38631;47.572;10.704;2024-01-15T00:33:13;0.60;;;0.40;;
52734;SDS011;38631;47.572;10.704;2024-01-15T00:35:39;1.00;;;0.50;;
52734;SDS011;38631;47.572;10.704;2024-01-15T00:38:05;1.58;;;1.20;;
52734;SDS011;38631;47.572;10.704;2024-01-15T00:40:30;1.17;;;1.00;;
52734;SDS011;38631;47.572;10.704;2024-01-15T00:42:55;1.02;;;0.70;;
52734;SDS011;38631;47.572;10.704;2024-01-15T00:45:21;0.73;;;0.50;;
52734;SDS011;38631;47.572;10.704;2024-01-15T00:47:46;0.40;;;0.30;;
52734;SDS011;38631;47.572;10.704;2024-01-15T00:50:12;1.50;;;0.30;;
52734;SDS011;38631;47.572;10.704;2024-01-15T00:52:37;0.75;;;0.40;;
52734;SDS011;38631;47.572;10.704;2024-01-15T00:55:03;0.50;;;0.40;;
52734;SDS011;38631;47.572;10.704;2024-01-15T00:57:28;0.63;;;0.40;;
52734;SDS011;38631;47.572;10.704;2024-01-15T00:59:54;1.98;;;0.47;;
52734;SDS011;38631;47.572;10.704;2024-01-15T01:02:19;3.13;;;0.57;;
52734;SDS011;38631;47.572;10.704;2024-01-15T01:04:45;0.70;;;0.40;;
52734;SDS011;38631;47.572;10.704;2024-01-15T01:07:10;0.90;;;0.68;;
52734;SDS011;38631;47.572;10.704;2024-01-15T01:09:35;0.75;;;0.40;;
52734;SDS011;38631;47.572;10.704;2024-01-15T01:12:01;1.42;;;1.13;;
52734;SDS011;38631;47.572;10.704;2024-01-15T01:14:26;2.22;;;1.33;;
52734;SDS011;38631;47.572;10.704;2024-01-15T01:16:51;3.35;;;1.15;;
52734;SDS011;38631;47.572;10.704;2024-01-15T01:19:17;1.88;;;0.70;;
52734;SDS011;38631;47.572;10.704;2024-01-15T01:21:42;1.00;;;0.60;;
52734;SDS011;38631;47.572;10.704;2024-01-15T01:24:08;1.73;;;1.10;;
52734;SDS011;38631;47.572;10.704;2024-01-15T01:26:33;1.73;;;1.30;;
52734;SDS011;38631;47.572;10.704;2024-01-15T01:28:58;2.50;;;1.08;;
52734;SDS011;38631;47.572;10.704;2024-01-15T01:31:24;1.77;;;1.00;;
52734;SDS011;38631;47.572;10.704;2024-01-15T01:33:49;2.40;;;0.90;;
52734;SDS011;38631;47.572;10.704;2024-01-15T01:36:15;1.55;;;0.77;;
52734;SDS011;38631;47.572;10.704;2024-01-15T01:38:40;1.70;;;1.13;;
52734;SDS011;38631;47.572;10.704;2024-01-15T01:41:06;4.60;;;1.35;;
52734;SDS011;38631;47.572;10.704;2024-01-15T01:43:31;2.28;;;1.83;;
52734;SDS011;38631;47.572;10.704;2024-01-15T01:45:57;1.27;;;0.80;;
52734;SDS011;38631;47.572;10.704;2024-01-15T01:48:25;1.48;;;0.80;;
52734;SDS011;38631;47.572;10.704;2024-01-15T01:50:51;1.73;;;0.90;;
52734;SDS011;38631;47.572;10.704;2024-01-15T01:53:18;1.20;;;0.80;;
52734;SDS011;38631;47.572;10.704;2024-01-15T01:55:44;1.60;;;0.98;;
52734;SDS011;38631;47.572;10.704;2024-01-15T01:58:11;1.42;;;0.70;;
52734;SDS011;38631;47.572;10.704;2024-01-15T02:00:36;1.75;;;0.90;;
52734;SDS011;38631;47.572;10.704;2024-01-15T02:03:01;0.75;;;0.63;;
52734;SDS011;38631;47.572;10.704;2024-01-15T02:05:28;1.90;;;1.27;;
52734;SDS011;38631;47.572;10.704;2024-01-15T02:07:54;1.00;;;0.70;;
52734;SDS011;38631;47.572;10.704;2024-01-15T02:10:19;1.85;;;0.95;;
52734;SDS011;38631;47.572;10.704;2024-01-15T02:12:45;1.70;;;0.90;;
52734;SDS011;38631;47.572;10.704;2024-01-15T02:15:13;1.15;;;0.90;;
52734;SDS011;38631;47.572;10.704;2024-01-15T02:20:22;1.08;;;0.75;;
52734;SDS011;38631;47.572;10.704;2024-01-15T02:22:48;3.92;;;1.00;;
52734;SDS011;38631;47.572;10.704;2024-01-15T02:25:13;1.83;;;1.23;;
52734;SDS011;38631;47.572;10.704;2024-01-15T02:27:38;1.80;;;1.30;;
52734;SDS011;38631;47.572;10.704;2024-01-15T02:30:04;3.38;;;1.23;;
52734;SDS011;38631;47.572;10.704;2024-01-15T02:32:31;1.92;;;1.00;;
52734;SDS011;38631;47.572;10.704;2024-01-15T02:34:56;1.52;;;1.00;;
52734;SDS011;38631;47.572;10.704;2024-01-15T02:37:22;2.08;;;1.08;;
52734;SDS011;38631;47.572;10.704;2024-01-15T02:39:47;2.97;;;1.48;;
52734;SDS011;38631;47.572;10.704;2024-01-15T02:42:12;3.28;;;1.35;;
52734;SDS011;38631;47.572;10.704;2024-01-15T02:44:38;2.38;;;1.13;;
52734;SDS011;38631;47.572;10.704;2024-01-15T02:47:03;2.83;;;1.02;;
52734;SDS011;38631;47.572;10.704;2024-01-15T02:49:28;2.28;;;1.23;;
52734;SDS011;38631;47.572;10.704;2024-01-15T02:51:54;1.85;;;1.13;;
52734;SDS011;38631;47.572;10.704;2024-01-15T02:54:19;2.47;;;1.30;;
52734;SDS011;38631;47.572;10.704;2024-01-15T02:56:45;2.42;;;1.00;;
52734;SDS011;38631;47.572;10.704;2024-01-15T02:59:10;3.10;;;1.20;;
52734;SDS011;38631;47.572;10.704;2024-01-15T03:01:35;1.98;;;1.30;;
52734;SDS011;38631;47.572;10.704;2024-01-15T03:04:01;2.42;;;1.20;;
52734;SDS011;38631;47.572;10.704;2024-01-15T03:06:26;1.83;;;1.48;;
52734;SDS011;38631;47.572;10.704;2024-01-15T03:08:51;2.97;;;1.48;;
52734;SDS011;38631;47.572;10.704;2024-01-15T03:11:17;6.65;;;3.25;;
52734;SDS011;38631;47.572;10.704;2024-01-15T03:13:42;8.32;;;3.85;;
52734;SDS011;38631;47.572;10.704;2024-01-15T03:16:08;10.25;;;5.97;;
52734;SDS011;38631;47.572;10.704;2024-01-15T03:18:33;14.43;;;8.23;;
52734;SDS011;38631;47.572;10.704;2024-01-15T03:20:58;21.88;;;9.18;;
52734;SDS011;38631;47.572;10.704;2024-01-15T03:23:26;16.85;;;9.85;;
52734;SDS011;38631;47.572;10.704;2024-01-15T03:25:51;21.83;;;11.45;;
52734;SDS011;38631;47.572;10.704;2024-01-15T03:28:17;20.25;;;10.35;;
52734;SDS011;38631;47.572;10.704;2024-01-15T03:30:42;17.05;;;8.85;;
52734;SDS011;38631;47.572;10.704;2024-01-15T03:33:07;15.57;;;8.73;;
52734;SDS011;38631;47.572;10.704;2024-01-15T03:35:33;14.55;;;8.90;;
52734;SDS011;38631;47.572;10.704;2024-01-15T03:37:58;17.70;;;8.30;;
52734;SDS011;38631;47.572;10.704;2024-01-15T03:40:23;15.02;;;7.82;;
52734;SDS011;38631;47.572;10.704;2024-01-15T03:42:49;13.50;;;7.30;;
52734;SDS011;38631;47.572;10.704;2024-01-15T03:45:14;14.45;;;8.15;;
52734;SDS011;38631;47.572;10.704;2024-01-15T03:47:39;14.75;;;6.97;;
52734;SDS011;38631;47.572;10.704;2024-01-15T03:50:05;15.32;;;7.38;;
52734;SDS011;38631;47.572;10.704;2024-01-15T03:52:31;13.93;;;7.80;;
52734;SDS011;38631;47.572;10.704;2024-01-15T03:54:56;13.82;;;7.63;;
52734;SDS011;38631;47.572;10.704;2024-01-15T03:57:21;13.57;;;7.28;;
52734;SDS011;38631;47.572;10.704;2024-01-15T03:59:47;16.38;;;7.57;;
52734;SDS011;38631;47.572;10.704;2024-01-15T04:02:12;14.63;;;7.60;;
52734;SDS011;38631;47.572;10.704;2024-01-15T04:04:40;13.35;;;6.53;;
52734;SDS011;38631;47.572;10.704;2024-01-15T04:07:07;12.38;;;7.18;;
52734;SDS011;38631;47.572;10.704;2024-01-15T04:09:32;10.48;;;5.88;;
52734;SDS011;38631;47.572;10.704;2024-01-15T04:11:57;13.13;;;7.05;;
52734;SDS011;38631;47.572;10.704;2024-01-15T04:14:23;10.85;;;5.55;;
52734;SDS011;38631;47.572;10.704;2024-01-15T04:16:48;11.52;;;5.65;;
52734;SDS011;38631;47.572;10.704;2024-01-15T04:19:14;12.15;;;6.80;;
52734;SDS011;38631;47.572;10.704;2024-01-15T04:21:39;10.68;;;5.65;;
52734;SDS011;38631;47.572;10.704;2024-01-15T04:24:04;10.93;;;5.60;;
52734;SDS011;38631;47.572;10.704;2024-01-15T04:26:30;10.38;;;5.63;;
52734;SDS011;38631;47.572;10.704;2024-01-15T04:28:55;11.50;;;7.03;;
52734;SDS011;38631;47.572;10.704;2024-01-15T04:31:22;12.80;;;7.30;;
52734;SDS011;38631;47.572;10.704;2024-01-15T04:33:48;11.98;;;6.93;;
52734;SDS011;38631;47.572;10.704;2024-01-15T04:36:14;13.80;;;6.55;;
52734;SDS011;38631;47.572;10.704;2024-01-15T04:38:39;12.23;;;6.88;;
52734;SDS011;38631;47.572;10.704;2024-01-15T04:41:04;9.38;;;5.65;;
52734;SDS011;38631;47.572;10.704;2024-01-15T04:43:30;11.68;;;6.10;;
52734;SDS011;38631;47.572;10.704;2024-01-15T04:45:55;9.48;;;5.38;;
52734;SDS011;38631;47.572;10.704;2024-01-15T04:48:21;10.32;;;6.25;;
52734;SDS011;38631;47.572;10.704;2024-01-15T04:50:47;10.00;;;5.22;;
52734;SDS011;38631;47.572;10.704;2024-01-15T04:53:13;10.15;;;6.47;;
52734;SDS011;38631;47.572;10.704;2024-01-15T04:55:39;13.07;;;6.60;;
52734;SDS011;38631;47.572;10.704;2024-01-15T04:58:04;10.40;;;5.68;;
52734;SDS011;38631;47.572;10.704;2024-01-15T05:00:29;10.27;;;5.90;;
52734;SDS011;38631;47.572;10.704;2024-01-15T05:02:55;11.57;;;7.43;;
52734;SDS011;38631;47.572;10.704;2024-01-15T05:05:21;17.20;;;8.30;;
52734;SDS011;38631;47.572;10.704;2024-01-15T05:07:46;15.05;;;7.57;;
52734;SDS011;38631;47.572;10.704;2024-01-15T05:10:11;12.43;;;6.43;;
52734;SDS011;38631;47.572;10.704;2024-01-15T05:12:37;11.45;;;5.88;;
52734;SDS011;38631;47.572;10.704;2024-01-15T05:15:03;12.15;;;5.57;;
52734;SDS011;38631;47.572;10.704;2024-01-15T05:17:28;10.82;;;5.63;;
52734;SDS011;38631;47.572;10.704;2024-01-15T05:19:54;12.80;;;7.03;;
52734;SDS011;38631;47.572;10.704;2024-01-15T05:22:19;13.30;;;6.93;;
52734;SDS011;38631;47.572;10.704;2024-01-15T05:24:46;13.48;;;6.43;;
52734;SDS011;38631;47.572;10.704;2024-01-15T05:27:11;11.63;;;6.10;;
52734;SDS011;38631;47.572;10.704;2024-01-15T05:29:37;11.32;;;7.00;;
52734;SDS011;38631;47.572;10.704;2024-01-15T05:32:02;11.68;;;7.07;;
52734;SDS011;38631;47.572;10.704;2024-01-15T05:34:27;12.13;;;5.97;;
52734;SDS011;38631;47.572;10.704;2024-01-15T05:36:53;12.68;;;7.78;;
52734;SDS011;38631;47.572;10.704;2024-01-15T05:39:18;11.52;;;6.40;;
52734;SDS011;38631;47.572;10.704;2024-01-15T05:41:44;14.23;;;6.57;;
52734;SDS011;38631;47.572;10.704;2024-01-15T05:44:09;13.15;;;6.50;;
52734;SDS011;38631;47.572;10.704;2024-01-15T05:46:35;13.45;;;6.97;;
52734;SDS011;38631;47.572;10.704;2024-01-15T05:49:01;13.60;;;7.13;;
52734;SDS011;38631;47.572;10.704;2024-01-15T05:51:26;12.82;;;6.45;;
52734;SDS011;38631;47.572;10.704;2024-01-15T05:53:51;12.73;;;7.10;;
52734;SDS011;38631;47.572;10.704;2024-01-15T05:56:17;12.13;;;6.28;;
52734;SDS011;38631;47.572;10.704;2024-01-15T05:58:42;11.88;;;5.72;;
52734;SDS011;38631;47.572;10.704;2024-01-15T06:01:08;12.10;;;6.25;;
52734;SDS011;38631;47.572;10.704;2024-01-15T06:03:33;9.98;;;6.22;;
52734;SDS011;38631;47.572;10.704;2024-01-15T06:05:58;9.05;;;5.53;;
52734;SDS011;38631;47.572;10.704;2024-01-15T06:08:24;10.20;;;5.28;;
52734;SDS011;38631;47.572;10.704;2024-01-15T06:10:51;9.35;;;5.38;;
52734;SDS011;38631;47.572;10.704;2024-01-15T06:13:17;9.43;;;4.78;;
52734;SDS011;38631;47.572;10.704;2024-01-15T06:15:42;11.40;;;5.60;;
52734;SDS011;38631;47.572;10.704;2024-01-15T06:18:07;11.60;;;5.55;;
52734;SDS011;38631;47.572;10.704;2024-01-15T06:20:33;11.95;;;5.03;;
52734;SDS011;38631;47.572;10.704;2024-01-15T06:22:58;8.50;;;5.03;;
52734;SDS011;38631;47.572;10.704;2024-01-15T06:25:23;8.93;;;5.10;;
52734;SDS011;38631;47.572;10.704;2024-01-15T06:27:49;10.05;;;5.07;;
52734;SDS011;38631;47.572;10.704;2024-01-15T06:30:14;9.75;;;5.53;;
52734;SDS011;38631;47.572;10.704;2024-01-15T06:32:40;7.35;;;4.22;;
52734;SDS011;38631;47.572;10.704;2024-01-15T06:35:05;7.50;;;3.88;;
52734;SDS011;38631;47.572;10.704;2024-01-15T06:37:31;8.50;;;4.60;;
52734;SDS011;38631;47.572;10.704;2024-01-15T06:39:57;9.63;;;5.10;;
52734;SDS011;38631;47.572;10.704;2024-01-15T06:42:23;8.02;;;4.68;;
52734;SDS011;38631;47.572;10.704;2024-01-15T06:44:48;6.53;;;4.28;;
52734;SDS011;38631;47.572;10.704;2024-01-15T06:47:14;8.13;;;3.95;;
52734;SDS011;38631;47.572;10.704;2024-01-15T06:49:39;7.88;;;4.32;;
52734;SDS011;38631;47.572;10.704;2024-01-15T06:52:05;7.93;;;4.07;;
52734;SDS011;38631;47.572;10.704;2024-01-15T06:54:31;9.02;;;4.53;;
52734;SDS011;38631;47.572;10.704;2024-01-15T06:56:56;9.23;;;4.18;;
52734;SDS011;38631;47.572;10.704;2024-01-15T06:59:22;7.72;;;3.92;;
52734;SDS011;38631;47.572;10.704;2024-01-15T07:01:47;6.60;;;3.42;;
52734;SDS011;38631;47.572;10.704;2024-01-15T07:04:12;7.70;;;4.20;;
52734;SDS011;38631;47.572;10.704;2024-01-15T07:06:38;8.82;;;4.25;;
52734;SDS011;38631;47.572;10.704;2024-01-15T07:09:03;9.27;;;4.82;;
52734;SDS011;38631;47.572;10.704;2024-01-15T07:11:29;7.93;;;4.65;;
52734;SDS011;38631;47.572;10.704;2024-01-15T07:13:54;9.45;;;5.40;;
52734;SDS011;38631;47.572;10.704;2024-01-15T07:16:20;8.25;;;4.60;;
52734;SDS011;38631;47.572;10.704;2024-01-15T07:18:45;10.35;;;5.43;;
52734;SDS011;38631;47.572;10.704;2024-01-15T07:21:10;9.98;;;4.70;;
52734;SDS011;38631;47.572;10.704;2024-01-15T07:23:36;11.68;;;4.70;;
52734;SDS011;38631;47.572;10.704;2024-01-15T07:26:01;10.27;;;4.80;;
52734;SDS011;38631;47.572;10.704;2024-01-15T07:28:30;8.48;;;4.80;;
52734;SDS011;38631;47.572;10.704;2024-01-15T07:30:55;8.20;;;4.50;;
52734;SDS011;38631;47.572;10.704;2024-01-15T07:33:21;8.55;;;4.60;;
52734;SDS011;38631;47.572;10.704;2024-01-15T07:35:46;10.48;;;5.35;;
52734;SDS011;38631;47.572;10.704;2024-01-15T07:38:12;9.77;;;4.75;;
52734;SDS011;38631;47.572;10.704;2024-01-15T07:40:37;8.23;;;4.07;;
52734;SDS011;38631;47.572;10.704;2024-01-15T07:43:03;8.15;;;4.55;;
52734;SDS011;38631;47.572;10.704;2024-01-15T07:45:28;6.78;;;4.28;;
52734;SDS011;38631;47.572;10.704;2024-01-15T07:47:54;9.50;;;4.60;;
52734;SDS011;38631;47.572;10.704;2024-01-15T07:50:19;8.73;;;4.22;;
52734;SDS011;38631;47.572;10.704;2024-01-15T07:52:45;8.68;;;4.43;;
52734;SDS011;38631;47.572;10.704;2024-01-15T07:55:10;8.02;;;4.35;;
52734;SDS011;38631;47.572;10.704;2024-01-15T07:57:35;10.43;;;4.45;;
52734;SDS011;38631;47.572;10.704;2024-01-15T08:00:01;8.82;;;4.30;;
52734;SDS011;38631;47.572;10.704;2024-01-15T08:02:29;7.80;;;3.83;;
52734;SDS011;38631;47.572;10.704;2024-01-15T08:04:55;6.78;;;4.22;;
52734;SDS011;38631;47.572;10.704;2024-01-15T08:07:20;7.70;;;3.85;;
52734;SDS011;38631;47.572;10.704;2024-01-15T08:09:46;7.35;;;3.92;;
52734;SDS011;38631;47.572;10.704;2024-01-15T08:12:12;8.75;;;4.65;;
52734;SDS011;38631;47.572;10.704;2024-01-15T08:14:38;9.32;;;4.40;;
52734;SDS011;38631;47.572;10.704;2024-01-15T08:17:03;5.93;;;3.55;;
52734;SDS011;38631;47.572;10.704;2024-01-15T08:19:29;9.93;;;4.03;;
52734;SDS011;38631;47.572;10.704;2024-01-15T08:21:54;7.57;;;3.72;;
52734;SDS011;38631;47.572;10.704;2024-01-15T08:24:20;7.82;;;4.25;;
52734;SDS011;38631;47.572;10.704;2024-01-15T08:26:45;17.13;;;8.38;;
52734;SDS011;38631;47.572;10.704;2024-01-15T08:29:11;21.00;;;9.57;;
52734;SDS011;38631;47.572;10.704;2024-01-15T08:31:36;11.50;;;5.25;;
52734;SDS011;38631;47.572;10.704;2024-01-15T08:34:04;10.38;;;4.93;;
52734;SDS011;38631;47.572;10.704;2024-01-15T08:36:31;7.22;;;4.03;;
52734;SDS011;38631;47.572;10.704;2024-01-15T08:38:59;7.03;;;3.10;;
52734;SDS011;38631;47.572;10.704;2024-01-15T08:41:25;8.60;;;4.18;;
52734;SDS011;38631;47.572;10.704;2024-01-15T08:43:50;9.25;;;4.28;;
52734;SDS011;38631;47.572;10.704;2024-01-15T08:46:16;5.57;;;2.90;;
52734;SDS011;38631;47.572;10.704;2024-01-15T08:48:41;6.93;;;3.35;;
52734;SDS011;38631;47.572;10.704;2024-01-15T08:51:07;5.85;;;2.45;;
52734;SDS011;38631;47.572;10.704;2024-01-15T08:53:33;5.70;;;2.70;;
52734;SDS011;38631;47.572;10.704;2024-01-15T08:55:58;5.38;;;2.53;;
52734;SDS011;38631;47.572;10.704;2024-01-15T08:58:23;5.32;;;2.40;;
52734;SDS011;38631;47.572;10.704;2024-01-15T09:00:49;5.50;;;2.53;;
52734;SDS011;38631;47.572;10.704;2024-01-15T09:03:15;3.90;;;2.05;;
52734;SDS011;38631;47.572;10.704;2024-01-15T09:05:41;3.65;;;1.83;;
52734;SDS011;38631;47.572;10.704;2024-01-15T09:08:07;5.82;;;2.65;;
52734;SDS011;38631;47.572;10.704;2024-01-15T09:10:33;4.70;;;2.60;;
52734;SDS011;38631;47.572;10.704;2024-01-15T09:12:58;4.60;;;2.78;;
52734;SDS011;38631;47.572;10.704;2024-01-15T09:15:23;4.10;;;2.58;;
52734;SDS011;38631;47.572;10.704;2024-01-15T09:17:49;5.90;;;2.15;;
52734;SDS011;38631;47.572;10.704;2024-01-15T09:20:14;7.00;;;2.08;;
52734;SDS011;38631;47.572;10.704;2024-01-15T09:22:40;5.38;;;2.13;;
52734;SDS011;38631;47.572;10.704;2024-01-15T09:25:09;6.95;;;2.80;;
52734;SDS011;38631;47.572;10.704;2024-01-15T09:27:35;9.43;;;4.18;;
52734;SDS011;38631;47.572;10.704;2024-01-15T09:30:01;6.25;;;3.95;;
52734;SDS011;38631;47.572;10.704;2024-01-15T09:32:27;4.80;;;2.65;;
52734;SDS011;38631;47.572;10.704;2024-01-15T09:34:52;3.80;;;2.63;;
52734;SDS011;38631;47.572;10.704;2024-01-15T09:37:18;7.13;;;3.83;;
52734;SDS011;38631;47.572;10.704;2024-01-15T09:39:43;5.78;;;3.78;;
52734;SDS011;38631;47.572;10.704;2024-01-15T09:42:08;6.65;;;2.42;;
52734;SDS011;38631;47.572;10.704;2024-01-15T09:44:35;5.32;;;3.03;;
52734;SDS011;38631;47.572;10.704;2024-01-15T09:47:01;7.80;;;3.45;;
52734;SDS011;38631;47.572;10.704;2024-01-15T09:49:27;5.70;;;2.90;;
52734;SDS011;38631;47.572;10.704;2024-01-15T09:51:53;3.97;;;2.13;;
52734;SDS011;38631;47.572;10.704;2024-01-15T09:54:19;3.42;;;1.95;;
52734;SDS011;38631;47.572;10.704;2024-01-15T09:56:46;5.22;;;3.00;;
52734;SDS011;38631;47.572;10.704;2024-01-15T09:59:18;2.72;;;1.80;;
52734;SDS011;38631;47.572;10.704;2024-01-15T10:01:44;3.20;;;2.20;;
52734;SDS011;38631;47.572;10.704;2024-01-15T10:04:13;2.42;;;1.50;;
52734;SDS011;38631;47.572;10.704;2024-01-15T10:06:39;3.92;;;2.17;;
52734;SDS011;38631;47.572;10.704;2024-01-15T10:09:08;3.55;;;2.00;;
52734;SDS011;38631;47.572;10.704;2024-01-15T10:11:33;4.93;;;2.40;;
52734;SDS011;38631;47.572;10.704;2024-01-15T10:13:59;9.95;;;4.10;;
52734;SDS011;38631;47.572;10.704;2024-01-15T10:16:28;8.65;;;3.38;;
52734;SDS011;38631;47.572;10.704;2024-01-15T10:18:53;3.72;;;1.38;;
52734;SDS011;38631;47.572;10.704;2024-01-15T10:21:19;3.75;;;1.77;;
52734;SDS011;38631;47.572;10.704;2024-01-15T10:23:45;3.13;;;1.73;;
52734;SDS011;38631;47.572;10.704;2024-01-15T10:26:10;1.75;;;1.00;;
52734;SDS011;38631;47.572;10.704;2024-01-15T10:28:37;1.60;;;0.90;;
52734;SDS011;38631;47.572;10.704;2024-01-15T10:31:02;2.63;;;0.80;;
52734;SDS011;38631;47.572;10.704;2024-01-15T10:33:28;1.35;;;0.60;;
52734;SDS011;38631;47.572;10.704;2024-01-15T10:35:54;2.05;;;0.73;;
52734;SDS011;38631;47.572;10.704;2024-01-15T10:38:21;0.82;;;0.55;;
52734;SDS011;38631;47.572;10.704;2024-01-15T10:40:47;1.30;;;0.82;;
52734;SDS011;38631;47.572;10.704;2024-01-15T10:43:16;1.87;;;1.07;;
52734;SDS011;38631;47.572;10.704;2024-01-15T10:45:43;1.33;;;0.88;;
52734;SDS011;38631;47.572;10.704;2024-01-15T10:48:12;3.22;;;0.90;;
52734;SDS011;38631;47.572;10.704;2024-01-15T10:50:38;0.82;;;0.68;;
52734;SDS011;38631;47.572;10.704;2024-01-15T10:53:04;2.67;;;1.58;;
52734;SDS011;38631;47.572;10.704;2024-01-15T10:55:30;2.90;;;0.80;;
52734;SDS011;38631;47.572;10.704;2024-01-15T10:57:57;1.52;;;0.90;;
52734;SDS011;38631;47.572;10.704;2024-01-15T11:00:23;3.22;;;0.90;;
52734;SDS011;38631;47.572;10.704;2024-01-15T11:02:50;0.90;;;0.63;;
52734;SDS011;38631;47.572;10.704;2024-01-15T11:05:16;2.55;;;1.20;;
52734;SDS011;38631;47.572;10.704;2024-01-15T11:07:47;2.47;;;1.00;;
52734;SDS011;38631;47.572;10.704;2024-01-15T11:13:09;2.88;;;1.25;;
52734;SDS011;38631;47.572;10.704;2024-01-15T11:18:26;1.95;;;1.05;;
52734;SDS011;38631;47.572;10.704;2024-01-15T11:23:58;1.17;;;0.70;;
52734;SDS011;38631;47.572;10.704;2024-01-15T11:26:27;2.05;;;1.20;;
52734;SDS011;38631;47.572;10.704;2024-01-15T11:29:09;1.42;;;0.70;;
52734;SDS011;38631;47.572;10.704;2024-01-15T11:31:57;1.42;;;0.60;;
52734;SDS011;38631;47.572;10.704;2024-01-15T11:37:16;1.15;;;0.60;;
52734;SDS011;38631;47.572;10.704;2024-01-15T11:39:42;1.85;;;0.90;;
52734;SDS011;38631;47.572;10.704;2024-01-15T11:42:09;1.35;;;0.77;;
52734;SDS011;38631;47.572;10.704;2024-01-15T11:44:35;1.55;;;0.70;;
52734;SDS011;38631;47.572;10.704;2024-01-15T11:47:02;1.92;;;0.95;;
52734;SDS011;38631;47.572;10.704;2024-01-15T11:52:15;1.10;;;0.80;;
52734;SDS011;38631;47.572;10.704;2024-01-15T12:00:15;1.40;;;1.00;;
52734;SDS011;38631;47.572;10.704;2024-01-15T12:02:41;1.65;;;0.68;;
52734;SDS011;38631;47.572;10.704;2024-01-15T12:05:10;1.75;;;1.10;;
52734;SDS011;38631;47.572;10.704;2024-01-15T12:07:40;1.65;;;1.10;;
52734;SDS011;38631;47.572;10.704;2024-01-15T12:10:09;2.40;;;1.17;;
52734;SDS011;38631;47.572;10.704;2024-01-15T12:15:12;3.53;;;1.50;;
52734;SDS011;38631;47.572;10.704;2024-01-15T12:17:39;4.03;;;1.48;;
52734;SDS011;38631;47.572;10.704;2024-01-15T12:20:05;2.88;;;1.10;;
52734;SDS011;38631;47.572;10.704;2024-01-15T12:22:31;1.15;;;0.80;;
52734;SDS011;38631;47.572;10.704;2024-01-15T12:24:56;3.63;;;1.92;;
52734;SDS011;38631;47.572;10.704;2024-01-15T12:27:22;4.65;;;1.73;;
52734;SDS011;38631;47.572;10.704;2024-01-15T12:29:48;12.23;;;4.68;;
52734;SDS011;38631;47.572;10.704;2024-01-15T12:32:14;3.40;;;1.38;;
52734;SDS011;38631;47.572;10.704;2024-01-15T12:34:39;1.88;;;1.27;;
52734;SDS011;38631;47.572;10.704;2024-01-15T12:37:06;4.70;;;2.13;;
52734;SDS011;38631;47.572;10.704;2024-01-15T12:39:33;1.90;;;1.20;;
52734;SDS011;38631;47.572;10.704;2024-01-15T12:42:00;8.82;;;3.50;;
52734;SDS011;38631;47.572;10.704;2024-01-15T12:44:26;3.28;;;1.50;;
52734;SDS011;38631;47.572;10.704;2024-01-15T12:46:52;2.72;;;1.67;;
52734;SDS011;38631;47.572;10.704;2024-01-15T12:49:17;2.85;;;0.95;;
52734;SDS011;38631;47.572;10.704;2024-01-15T12:51:42;1.75;;;0.98;;
52734;SDS011;38631;47.572;10.704;2024-01-15T12:54:08;1.38;;;0.80;;
52734;SDS011;38631;47.572;10.704;2024-01-15T12:56:33;1.92;;;1.05;;
52734;SDS011;38631;47.572;10.704;2024-01-15T12:58:59;3.10;;;1.73;;
52734;SDS011;38631;47.572;10.704;2024-01-15T13:01:24;2.15;;;1.27;;
52734;SDS011;38631;47.572;10.704;2024-01-15T13:03:49;4.38;;;2.38;;
52734;SDS011;38631;47.572;10.704;2024-01-15T13:06:15;4.45;;;1.90;;
52734;SDS011;38631;47.572;10.704;2024-01-15T13:08:40;4.53;;;2.40;;
52734;SDS011;38631;47.572;10.704;2024-01-15T13:11:05;7.05;;;3.08;;
52734;SDS011;38631;47.572;10.704;2024-01-15T13:13:31;7.18;;;3.83;;
52734;SDS011;38631;47.572;10.704;2024-01-15T13:15:59;6.35;;;3.13;;
52734;SDS011;38631;47.572;10.704;2024-01-15T13:18:25;2.45;;;1.55;;
52734;SDS011;38631;47.572;10.704;2024-01-15T13:20:51;6.75;;;3.17;;
52734;SDS011;38631;47.572;10.704;2024-01-15T13:23:16;4.28;;;2.28;;
52734;SDS011;38631;47.572;10.704;2024-01-15T13:25:42;3.45;;;1.65;;
52734;SDS011;38631;47.572;10.704;2024-01-15T13:28:09;2.40;;;1.40;;
52734;SDS011;38631;47.572;10.704;2024-01-15T13:30:34;2.40;;;1.13;;
52734;SDS011;38631;47.572;10.704;2024-01-15T13:33:00;1.27;;;0.90;;
52734;SDS011;38631;47.572;10.704;2024-01-15T13:35:29;2.30;;;1.10;;
52734;SDS011;38631;47.572;10.704;2024-01-15T13:37:57;1.92;;;1.20;;
52734;SDS011;38631;47.572;10.704;2024-01-15T13:40:24;1.73;;;1.05;;
52734;SDS011;38631;47.572;10.704;2024-01-15T13:42:54;2.83;;;1.60;;
52734;SDS011;38631;47.572;10.704;2024-01-15T13:45:20;4.15;;;2.22;;
52734;SDS011;38631;47.572;10.704;2024-01-15T13:47:46;4.68;;;2.13;;
52734;SDS011;38631;47.572;10.704;2024-01-15T13:50:11;2.88;;;1.90;;
52734;SDS011;38631;47.572;10.704;2024-01-15T13:52:37;2.78;;;1.60;;
52734;SDS011;38631;47.572;10.704;2024-01-15T13:55:02;4.72;;;2.17;;
52734;SDS011;38631;47.572;10.704;2024-01-15T13:57:28;1.83;;;0.95;;
52734;SDS011;38631;47.572;10.704;2024-01-15T13:59:54;4.00;;;2.30;;
52734;SDS011;38631;47.572;10.704;2024-01-15T14:02:20;4.40;;;1.60;;
52734;SDS011;38631;47.572;10.704;2024-01-15T14:04:45;3.97;;;1.98;;
52734;SDS011;38631;47.572;10.704;2024-01-15T14:07:12;5.90;;;1.80;;
52734;SDS011;38631;47.572;10.704;2024-01-15T14:09:37;3.88;;;1.58;;
52734;SDS011;38631;47.572;10.704;2024-01-15T14:12:03;4.85;;;1.77;;
52734;SDS011;38631;47.572;10.704;2024-01-15T14:14:28;3.03;;;1.50;;
52734;SDS011;38631;47.572;10.704;2024-01-15T14:16:54;2.97;;;1.67;;
52734;SDS011;38631;47.572;10.704;2024-01-15T14:19:19;5.00;;;2.55;;
52734;SDS011;38631;47.572;10.704;2024-01-15T14:21:45;1.67;;;1.10;;
52734;SDS011;38631;47.572;10.704;2024-01-15T14:24:11;2.90;;;1.17;;
52734;SDS011;38631;47.572;10.704;2024-01-15T14:26:36;3.55;;;1.63;;
52734;SDS011;38631;47.572;10.704;2024-01-15T14:29:01;4.22;;;2.00;;
52734;SDS011;38631;47.572;10.704;2024-01-15T14:31:27;4.53;;;1.80;;
52734;SDS011;38631;47.572;10.704;2024-01-15T14:33:53;3.22;;;1.60;;
52734;SDS011;38631;47.572;10.704;2024-01-15T14:36:20;2.50;;;1.00;;
52734;SDS011;38631;47.572;10.704;2024-01-15T14:38:45;2.78;;;1.15;;
52734;SDS011;38631;47.572;10.704;2024-01-15T14:41:11;2.97;;;1.25;;
52734;SDS011;38631;47.572;10.704;2024-01-15T14:43:36;4.18;;;2.65;;
52734;SDS011;38631;47.572;10.704;2024-01-15T14:46:01;3.95;;;1.58;;
52734;SDS011;38631;47.572;10.704;2024-01-15T14:48:27;3.85;;;2.38;;